createdAt,value
2022-11-05T00:00:26.870Z,8.44
2022-11-05T00:03:33.797Z,8.47
2022-11-05T00:06:40.760Z,8.48
2022-11-05T00:09:47.730Z,8.45
2022-11-05T00:12:54.802Z,8.40
2022-11-05T00:16:01.762Z,8.35
2022-11-05T00:19:08.702Z,8.26
2022-11-05T00:22:16.200Z,8.18
2022-11-05T00:25:23.285Z,8.10
2022-11-05T00:28:30.284Z,8.02
2022-11-05T00:31:31.146Z,7.97
2022-11-05T00:34:37.693Z,7.93
2022-11-05T00:37:49.773Z,7.89
2022-11-05T00:40:46.887Z,7.82
2022-11-05T00:43:53.420Z,7.75
2022-11-05T00:47:00.807Z,7.69
2022-11-05T00:50:07.450Z,7.66
2022-11-05T00:53:14.786Z,7.58
2022-11-05T00:56:22.089Z,7.53
2022-11-05T00:59:30.470Z,7.47
2022-11-05T01:02:38.872Z,7.42
2022-11-05T01:05:46.301Z,7.40
2022-11-05T01:08:53.273Z,7.37
2022-11-05T01:12:00.262Z,7.34
2022-11-05T01:15:07.236Z,7.31
2022-11-05T01:18:14.127Z,7.26
2022-11-05T01:21:21.194Z,7.23
2022-11-05T01:24:28.145Z,7.20
2022-11-05T01:27:35.044Z,7.17
2022-11-05T01:30:42.316Z,7.15
2022-11-05T01:33:49.140Z,7.07
2022-11-05T01:36:56.066Z,7.05
2022-11-05T01:40:02.857Z,7.08
2022-11-05T01:43:05.040Z,7.04
2022-11-05T01:46:11.878Z,7.02
2022-11-05T01:49:18.610Z,7.04
2022-11-05T01:52:25.979Z,6.99
2022-11-05T01:55:32.849Z,6.95
2022-11-05T01:58:39.721Z,6.90
2022-11-05T02:01:46.916Z,6.87
2022-11-05T02:04:53.424Z,6.83
2022-11-05T02:08:00.761Z,6.79
2022-11-05T02:11:08.157Z,6.79
2022-11-05T02:14:14.646Z,6.72
2022-11-05T02:17:21.802Z,6.68
2022-11-05T02:20:28.655Z,6.61
2022-11-05T02:23:35.404Z,6.50
2022-11-05T02:26:42.375Z,6.43
2022-11-05T02:29:48.832Z,6.35
2022-11-05T02:32:55.978Z,6.30
2022-11-05T02:36:03.243Z,6.21
2022-11-05T02:39:09.748Z,6.13
2022-11-05T02:42:16.907Z,6.03
2022-11-05T02:45:23.779Z,5.96
2022-11-05T02:48:30.551Z,5.92
2022-11-05T02:51:37.707Z,5.88
2022-11-05T02:54:44.565Z,5.88
2022-11-05T02:57:51.311Z,5.83
2022-11-05T03:00:58.538Z,5.77
2022-11-05T03:04:05.261Z,5.70
2022-11-05T03:07:12.330Z,5.64
2022-11-05T03:10:19.251Z,5.59
2022-11-05T03:13:26.491Z,5.50
2022-11-05T03:16:32.852Z,5.46
2022-11-05T03:19:40.033Z,5.40
2022-11-05T03:22:46.657Z,5.31
2022-11-05T03:25:53.084Z,5.27
2022-11-05T03:29:00.296Z,5.23
2022-11-05T03:32:07.135Z,5.28
2022-11-05T03:35:13.991Z,5.20
2022-11-05T03:38:21.283Z,5.23
2022-11-05T03:41:28.097Z,5.28
2022-11-05T03:44:35.086Z,5.27
2022-11-05T03:47:42.486Z,5.30
2022-11-05T03:50:48.917Z,5.30
2022-11-05T03:53:56.117Z,5.30
2022-11-05T03:57:03.240Z,5.30
2022-11-05T04:00:09.709Z,5.28
2022-11-05T04:03:16.945Z,5.31
2022-11-05T04:06:23.697Z,5.30
2022-11-05T04:09:30.478Z,5.27
2022-11-05T04:12:37.520Z,5.22
2022-11-05T04:15:44.310Z,5.14
2022-11-05T04:18:50.931Z,5.10
2022-11-05T04:21:58.241Z,5.09
2022-11-05T04:25:05.005Z,5.02
2022-11-05T04:28:11.823Z,4.98
2022-11-05T04:31:18.582Z,4.99
2022-11-05T04:34:25.559Z,4.92
2022-11-05T04:37:32.416Z,4.80
2022-11-05T04:40:39.536Z,4.75
2022-11-05T04:43:46.383Z,4.73
2022-11-05T04:46:52.872Z,4.73
2022-11-05T04:50:00.100Z,4.69
2022-11-05T04:53:06.471Z,4.62
2022-11-05T04:56:13.649Z,4.65
2022-11-05T04:59:20.728Z,4.65
2022-11-05T05:02:27.100Z,4.57
2022-11-05T05:05:34.108Z,4.52
2022-11-05T05:08:40.887Z,4.46
2022-11-05T05:11:47.779Z,4.40
2022-11-05T05:14:54.970Z,4.37
2022-11-05T05:18:01.873Z,4.32
2022-11-05T05:21:09.340Z,4.28
2022-11-05T05:24:16.700Z,4.21
2022-11-05T05:27:23.590Z,4.16
2022-11-05T05:30:30.494Z,4.15
2022-11-05T05:33:37.321Z,4.16
2022-11-05T05:36:44.331Z,4.22
2022-11-05T05:39:51.141Z,4.24
2022-11-05T05:42:58.075Z,4.19
2022-11-05T05:46:04.971Z,4.21
2022-11-05T05:49:12.650Z,4.15
2022-11-05T05:52:19.771Z,4.06
2022-11-05T05:55:26.543Z,4.06
2022-11-05T05:58:33.384Z,4.07
2022-11-05T06:01:40.804Z,4.07
2022-11-05T06:04:47.377Z,4.07
2022-11-05T06:07:54.496Z,4.04
2022-11-05T06:11:01.765Z,4.07
2022-11-05T06:14:08.337Z,4.04
2022-11-05T06:17:15.393Z,4.03
2022-11-05T06:20:22.678Z,4.06
2022-11-05T06:23:29.189Z,4.03
2022-11-05T06:26:36.315Z,4.01
2022-11-05T06:29:43.089Z,4.01
2022-11-05T06:32:50.060Z,4.06
2022-11-05T06:35:56.979Z,3.97
2022-11-05T06:39:03.698Z,3.94
2022-11-05T06:42:19.084Z,3.94
2022-11-05T06:45:14.450Z,3.89
2022-11-05T06:48:20.899Z,3.88
2022-11-05T06:51:27.893Z,3.92
2022-11-05T06:54:34.640Z,3.92
2022-11-05T06:57:41.422Z,3.89
2022-11-05T07:00:48.539Z,3.97
2022-11-05T07:03:55.929Z,4.01
2022-11-05T07:07:02.883Z,4.01
2022-11-05T07:10:09.506Z,4.10
2022-11-05T07:13:17.525Z,4.22
2022-11-05T07:16:24.923Z,4.34
2022-11-05T07:19:31.746Z,4.44
2022-11-05T07:22:40.824Z,4.51
2022-11-05T07:25:47.260Z,4.69
2022-11-05T07:28:54.775Z,4.77
2022-11-05T07:32:01.785Z,4.89
2022-11-05T07:35:08.262Z,4.99
2022-11-05T07:38:15.602Z,5.09
2022-11-05T07:41:22.688Z,5.23
2022-11-05T07:44:29.709Z,5.35
2022-11-05T07:47:36.845Z,5.60
2022-11-05T07:50:43.917Z,5.82
2022-11-05T07:53:50.800Z,5.96
2022-11-05T07:56:57.809Z,6.11
2022-11-05T08:00:04.659Z,6.29
2022-11-05T08:03:12.198Z,6.33
2022-11-05T08:06:19.525Z,6.32
2022-11-05T08:09:26.819Z,6.33
2022-11-05T08:12:33.662Z,6.47
2022-11-05T08:15:40.503Z,6.72
2022-11-05T08:18:47.971Z,6.86
2022-11-05T08:21:54.613Z,6.97
2022-11-05T08:25:06.762Z,7.07
2022-11-05T08:28:03.468Z,7.16
2022-11-05T08:31:09.969Z,7.27
2022-11-05T08:34:17.215Z,7.47
2022-11-05T08:37:23.756Z,7.59
2022-11-05T08:40:30.236Z,7.62
2022-11-05T08:43:37.258Z,7.67
2022-11-05T08:46:43.716Z,7.84
2022-11-05T08:49:50.897Z,7.94
2022-11-05T08:52:58.296Z,8.08
2022-11-05T08:56:05.365Z,8.18
2022-11-05T08:59:12.400Z,8.28
2022-11-05T09:02:19.455Z,8.40
2022-11-05T09:05:26.211Z,8.47
2022-11-05T09:08:33.591Z,8.53
2022-11-05T09:12:09.868Z,8.55
2022-11-05T09:14:44.613Z,8.60
2022-11-05T09:17:51.644Z,8.71
2022-11-05T09:20:58.569Z,8.86
2022-11-05T09:24:05.225Z,9.10
2022-11-05T09:27:12.182Z,9.31
2022-11-05T09:30:19.453Z,9.40
2022-11-05T09:33:26.363Z,9.56
2022-11-05T09:36:33.227Z,9.81
2022-11-05T09:39:40.905Z,9.96
2022-11-05T09:42:48.407Z,9.93
2022-11-05T09:45:55.267Z,9.81
2022-11-05T09:49:02.098Z,9.78
2022-11-05T09:52:08.601Z,9.76
2022-11-05T09:55:15.413Z,9.83
2022-11-05T09:58:27.571Z,9.86
2022-11-05T10:01:24.799Z,9.85
2022-11-05T10:04:31.852Z,9.93
2022-11-05T10:07:38.597Z,9.97
2022-11-05T10:10:45.453Z,10.01
2022-11-05T10:13:52.535Z,9.93
2022-11-05T10:16:59.630Z,9.82
2022-11-05T10:20:06.594Z,9.78
2022-11-05T10:23:14.033Z,9.76
2022-11-05T10:26:21.693Z,9.81
2022-11-05T10:29:28.293Z,9.88
2022-11-05T10:32:35.337Z,9.94
2022-11-05T10:35:42.732Z,10.04
2022-11-05T10:38:49.643Z,10.25
2022-11-05T10:41:56.491Z,10.62
2022-11-05T10:45:03.919Z,10.84
2022-11-05T10:48:10.447Z,11.07
2022-11-05T10:51:17.616Z,11.25
2022-11-05T10:54:24.937Z,11.21
2022-11-05T10:57:31.534Z,11.27
2022-11-05T11:00:38.880Z,11.38
2022-11-05T11:03:45.659Z,11.41
2022-11-05T11:06:52.565Z,11.57
2022-11-05T11:09:59.809Z,11.65
2022-11-05T11:13:06.547Z,11.64
2022-11-05T11:16:13.467Z,11.62
2022-11-05T11:19:20.267Z,11.56
2022-11-05T11:22:30.309Z,11.53
2022-11-05T11:25:36.979Z,11.43
2022-11-05T11:28:43.803Z,11.35
2022-11-05T11:31:51.199Z,11.35
2022-11-05T11:34:57.741Z,11.41
2022-11-05T11:38:05.162Z,11.49
2022-11-05T11:41:11.922Z,11.46
2022-11-05T11:44:18.686Z,11.49
2022-11-05T11:47:25.794Z,11.61
2022-11-05T11:50:32.668Z,11.80
2022-11-05T11:53:39.709Z,12.06
2022-11-05T11:56:46.807Z,12.39
2022-11-05T12:00:08.359Z,12.52
2022-11-05T12:03:01.929Z,12.38
2022-11-05T12:05:58.654Z,12.27
2022-11-05T12:09:06.907Z,12.08
2022-11-05T12:12:14.662Z,12.04
2022-11-05T12:15:21.980Z,12.16
2022-11-05T12:18:28.373Z,12.27
2022-11-05T12:21:52.069Z,12.51
2022-11-05T12:24:38.934Z,12.75
2022-11-05T12:27:45.974Z,13.09
2022-11-05T12:30:53.284Z,13.27
2022-11-05T12:33:59.758Z,13.18
2022-11-05T12:37:06.985Z,12.99
2022-11-05T12:40:14.061Z,12.85
2022-11-05T12:43:20.587Z,12.64
2022-11-05T12:46:27.969Z,12.38
2022-11-05T12:49:34.877Z,12.11
2022-11-05T12:52:41.843Z,11.89
2022-11-05T12:55:49.024Z,11.62
2022-11-05T12:58:55.883Z,11.41
2022-11-05T13:02:02.955Z,11.27
2022-11-05T13:05:09.857Z,11.17
2022-11-05T13:08:17.214Z,11.13
2022-11-05T13:11:24.077Z,11.10
2022-11-05T13:14:30.994Z,11.09
2022-11-05T13:17:38.285Z,11.17
2022-11-05T13:20:45.099Z,11.28
2022-11-05T13:23:51.835Z,11.28
2022-11-05T13:27:00.158Z,11.24
2022-11-05T13:30:06.691Z,11.19
2022-11-05T13:33:14.344Z,11.14
2022-11-05T13:36:21.557Z,11.13
2022-11-05T13:39:28.196Z,11.10
2022-11-05T13:42:36.032Z,11.13
2022-11-05T13:45:42.915Z,11.17
2022-11-05T13:48:49.847Z,11.27
2022-11-05T13:51:56.833Z,11.32
2022-11-05T13:55:03.865Z,11.38
2022-11-05T13:58:10.933Z,11.38
2022-11-05T14:01:18.059Z,11.35
2022-11-05T14:04:25.135Z,11.34
2022-11-05T14:07:31.721Z,11.31
2022-11-05T14:10:39.129Z,11.28
2022-11-05T14:13:46.436Z,11.27
2022-11-05T14:16:52.982Z,11.21
2022-11-05T14:20:00.425Z,11.19
2022-11-05T14:23:09.809Z,11.17
2022-11-05T14:26:16.654Z,11.16
2022-11-05T14:29:23.788Z,11.13
2022-11-05T14:32:30.903Z,11.09
2022-11-05T14:35:38.158Z,11.03
2022-11-05T14:38:45.094Z,11.01
2022-11-05T14:41:52.496Z,10.96
2022-11-05T14:44:59.616Z,10.94
2022-11-05T14:48:06.489Z,10.89
2022-11-05T14:51:13.971Z,10.86
2022-11-05T14:54:20.663Z,10.76
2022-11-05T14:57:28.092Z,10.65
2022-11-05T15:00:35.138Z,10.53
2022-11-05T15:03:46.464Z,10.43
2022-11-05T15:06:43.634Z,10.32
2022-11-05T15:09:50.817Z,10.17
2022-11-05T15:12:57.367Z,10.09
2022-11-05T15:16:04.636Z,9.91
2022-11-05T15:19:11.104Z,9.79
2022-11-05T15:22:18.496Z,9.63
2022-11-05T15:25:25.537Z,9.52
2022-11-05T15:28:32.362Z,9.40
2022-11-05T15:31:39.329Z,9.28
2022-11-05T15:34:46.224Z,9.10
2022-11-05T15:37:58.779Z,8.93
2022-11-05T15:40:57.181Z,8.79
2022-11-05T15:44:04.165Z,8.60
2022-11-05T15:47:11.460Z,8.47
2022-11-05T15:50:18.754Z,8.26
2022-11-05T15:53:47.413Z,8.14
2022-11-05T15:56:29.796Z,8.00
2022-11-05T15:59:36.520Z,7.96
2022-11-05T16:02:43.956Z,7.82
2022-11-05T16:05:50.778Z,7.71
2022-11-05T16:08:57.416Z,7.55
2022-11-05T16:12:04.680Z,7.41
2022-11-05T16:15:11.298Z,7.32
2022-11-05T16:18:18.675Z,7.22
2022-11-05T16:21:25.989Z,7.23
2022-11-05T16:24:32.480Z,7.29
2022-11-05T16:27:39.862Z,7.31
2022-11-05T16:30:46.801Z,7.35
2022-11-05T16:33:53.422Z,7.34
2022-11-05T16:37:00.616Z,7.31
2022-11-05T16:40:07.563Z,7.29
2022-11-05T16:43:14.404Z,7.32
2022-11-05T16:46:20.944Z,7.31
2022-11-05T16:49:28.075Z,7.29
2022-11-05T16:52:34.653Z,7.31
2022-11-05T16:55:41.597Z,7.26
2022-11-05T16:58:48.959Z,7.31
2022-11-05T17:01:56.128Z,7.32
2022-11-05T17:05:03.378Z,7.34
2022-11-05T17:08:10.942Z,7.32
2022-11-05T17:11:17.648Z,7.34
2022-11-05T17:14:28.810Z,7.40
2022-11-05T17:17:24.892Z,7.40
2022-11-05T17:20:38.264Z,7.41
2022-11-05T17:23:35.809Z,7.38
2022-11-05T17:26:42.333Z,7.40
2022-11-05T17:29:49.604Z,7.42
2022-11-05T17:32:56.696Z,7.42
2022-11-05T17:36:03.259Z,7.42
2022-11-05T17:39:10.635Z,7.49
2022-11-05T17:42:17.734Z,7.52
2022-11-05T17:45:24.234Z,7.45
2022-11-05T17:48:31.464Z,7.41
2022-11-05T17:51:38.248Z,7.42
2022-11-05T17:54:45.205Z,7.44
2022-11-05T17:57:52.466Z,7.45
2022-11-05T18:00:59.544Z,7.50
2022-11-05T18:04:08.850Z,7.52
2022-11-05T18:07:16.305Z,7.50
2022-11-05T18:10:23.129Z,7.47
2022-11-05T18:13:30.049Z,7.47
2022-11-05T18:16:37.003Z,7.49
2022-11-05T18:19:44.050Z,7.50
2022-11-05T18:22:50.892Z,7.49
2022-11-05T18:25:57.806Z,7.45
2022-11-05T18:29:05.084Z,7.42
2022-11-05T18:32:11.953Z,7.40
2022-11-05T18:35:18.774Z,7.40
2022-11-05T18:38:25.534Z,7.45
2022-11-05T18:41:32.025Z,7.44
2022-11-05T18:44:39.682Z,7.41
2022-11-05T18:47:46.846Z,7.42
2022-11-05T18:50:56.523Z,7.40
2022-11-05T18:53:56.407Z,7.38
2022-11-05T18:57:03.585Z,7.35
2022-11-05T19:00:10.132Z,7.35
2022-11-05T19:03:17.319Z,7.34
2022-11-05T19:06:24.169Z,7.32
2022-11-05T19:09:31.132Z,7.27
2022-11-05T19:12:38.502Z,7.26
2022-11-05T19:15:45.423Z,7.22
2022-11-05T19:18:52.431Z,7.22
2022-11-05T19:21:59.388Z,7.23
2022-11-05T19:25:06.624Z,7.19
2022-11-05T19:28:13.957Z,7.16
2022-11-05T19:31:21.114Z,7.15
2022-11-05T19:34:28.235Z,7.13
2022-11-05T19:37:35.277Z,7.15
2022-11-05T19:40:42.386Z,7.13
2022-11-05T19:43:48.946Z,7.08
2022-11-05T19:46:56.415Z,7.04
2022-11-05T19:50:04.047Z,7.02
2022-11-05T19:53:10.987Z,6.98
2022-11-05T19:56:17.868Z,6.95
2022-11-05T19:59:25.049Z,6.95
2022-11-05T20:02:31.982Z,6.91
2022-11-05T20:05:39.170Z,6.84
2022-11-05T20:09:15.394Z,6.83
2022-11-05T20:11:50.112Z,6.80
2022-11-05T20:14:56.660Z,6.77
2022-11-05T20:18:03.571Z,6.68
2022-11-05T20:21:10.162Z,6.63
2022-11-05T20:24:23.337Z,6.56
2022-11-05T20:27:20.624Z,6.54
2022-11-05T20:30:27.262Z,6.51
2022-11-05T20:33:34.251Z,6.50
2022-11-05T20:36:41.124Z,6.48
2022-11-05T20:39:47.968Z,6.46
2022-11-05T20:42:55.153Z,6.51
2022-11-05T20:46:01.895Z,6.54
2022-11-05T20:49:08.796Z,6.62
2022-11-05T20:52:16.058Z,6.68
2022-11-05T20:55:22.780Z,6.68
2022-11-05T20:58:29.468Z,6.71
2022-11-05T21:01:36.790Z,6.73
2022-11-05T21:04:43.621Z,6.71
2022-11-05T21:07:50.432Z,6.68
2022-11-05T21:10:57.364Z,6.62
2022-11-05T21:14:04.549Z,6.54
2022-11-05T21:17:11.429Z,6.47
2022-11-05T21:20:18.188Z,6.47
2022-11-05T21:23:24.991Z,6.48
2022-11-05T21:26:31.862Z,6.48
2022-11-05T21:29:38.838Z,6.53
2022-11-05T21:32:45.573Z,6.54
2022-11-05T21:35:52.132Z,6.61
2022-11-05T21:38:59.395Z,6.68
2022-11-05T21:42:06.480Z,6.72
2022-11-05T21:45:12.885Z,6.73
2022-11-05T21:48:20.052Z,6.71
2022-11-05T21:51:27.395Z,6.63
2022-11-05T21:54:33.794Z,6.63
2022-11-05T21:57:40.899Z,6.63
2022-11-05T22:00:47.657Z,6.65
2022-11-05T22:03:57.695Z,6.66
2022-11-05T22:06:57.530Z,6.69
2022-11-05T22:10:04.416Z,6.73
2022-11-05T22:13:11.219Z,6.77
2022-11-05T22:16:18.059Z,6.81
2022-11-05T22:19:25.270Z,6.79
2022-11-05T22:22:32.232Z,6.83
2022-11-05T22:25:39.156Z,6.81
2022-11-05T22:28:46.151Z,6.83
2022-11-05T22:31:53.113Z,6.83
2022-11-05T22:34:59.983Z,6.86
2022-11-05T22:38:06.846Z,6.86
2022-11-05T22:41:13.655Z,6.94
2022-11-05T22:44:20.895Z,6.99
2022-11-05T22:47:27.747Z,7.05
2022-11-05T22:50:34.914Z,7.07
2022-11-05T22:53:41.849Z,7.13
2022-11-05T22:56:48.757Z,7.15
2022-11-05T22:59:55.797Z,7.20
2022-11-05T23:03:03.450Z,7.22
2022-11-05T23:06:10.032Z,7.23
2022-11-05T23:09:17.268Z,7.27
2022-11-05T23:12:24.315Z,7.35
2022-11-05T23:15:30.772Z,7.40
2022-11-05T23:18:38.110Z,7.42
2022-11-05T23:21:44.978Z,7.47
2022-11-05T23:24:51.852Z,7.47
2022-11-05T23:27:59.022Z,7.42
2022-11-05T23:31:05.773Z,7.42
2022-11-05T23:34:12.506Z,7.37
2022-11-05T23:37:19.240Z,7.34
2022-11-05T23:40:26.402Z,7.24
2022-11-05T23:43:33.363Z,7.13
2022-11-05T23:46:40.218Z,7.05
2022-11-05T23:49:47.286Z,7.04
2022-11-05T23:52:54.146Z,7.04
2022-11-05T23:56:00.947Z,7.05
2022-11-05T23:59:08.137Z,7.15
